Time;durP1;ratioP1;P1;durP2;ratioP2;P2;SDS_P1;SDS_P2;PMS_P1;PMS_P2;Temp;Humidity;BMP_temperature;BMP_pressure;BME280_temperature;BME280_humidity;BME280_pressure;Samples;Min_cycle;Max_cycle;Signal;HPM_P1;HPM_P2
2021/10/12 00:07:19;;;;;;;5.00;0.93;;;16.30;99.90;;;;;;20666584;23;20249;-66
2021/10/12 00:17:22;;;;;;;0.37;0.37;;;16.10;99.90;;;;;;20690244;28;20901;-66
2021/10/12 00:27:28;;;;;;;0.70;0.70;;;16.10;99.90;;;;;;20736306;28;20260;-66
2021/10/12 00:37:31;;;;;;;3.17;0.77;;;16.10;99.90;;;;;;20679122;28;20188;-65
2021/10/12 00:47:37;;;;;;;0.20;0.20;;;16.20;99.90;;;;;;20651893;28;20226;-65
2021/10/12 00:57:41;;;;;;;0.73;0.73;;;16.20;99.90;;;;;;20653097;28;20227;-65
2021/10/12 01:07:46;;;;;;;0.30;0.30;;;16.30;99.90;;;;;;20652383;28;20253;-66
2021/10/12 01:17:50;;;;;;;0.60;0.60;;;16.10;99.90;;;;;;20688650;28;20285;-65
2021/10/12 01:27:55;;;;;;;0.43;0.10;;;16.00;99.90;;;;;;20732009;28;20244;-65
2021/10/12 01:37:59;;;;;;;2.80;1.67;;;16.00;99.90;;;;;;20675286;28;20282;-65
2021/10/12 01:48:04;;;;;;;1.73;1.20;;;15.90;99.90;;;;;;20650423;28;20277;-65
2021/10/12 01:58:08;;;;;;;0.53;0.53;;;15.90;99.90;;;;;;20652349;28;20195;-65
2021/10/12 02:08:13;;;;;;;0.83;0.73;;;15.90;99.90;;;;;;20650923;28;20317;-66
2021/10/12 02:18:16;;;;;;;1.83;1.30;;;15.90;99.90;;;;;;20703001;28;20550;-65
2021/10/12 02:28:21;;;;;;;0.53;0.27;;;15.80;99.90;;;;;;20745461;28;20234;-64
2021/10/12 02:38:25;;;;;;;5.40;0.70;;;15.60;99.90;;;;;;20684516;28;20206;-65
2021/10/12 02:48:30;;;;;;;6.23;0.60;;;15.50;99.90;;;;;;20662396;28;20619;-65
2021/10/12 02:58:35;;;;;;;0.97;0.90;;;15.40;99.90;;;;;;20662235;28;20202;-66
2021/10/12 03:08:40;;;;;;;0.63;0.57;;;15.30;99.90;;;;;;20658261;28;20349;-66
2021/10/12 03:18:43;;;;;;;1.47;1.00;;;15.30;99.90;;;;;;20688895;28;20209;-66
2021/10/12 03:28:48;;;;;;;2.93;0.50;;;15.30;99.90;;;;;;20739698;28;20206;-65
2021/10/12 03:38:52;;;;;;;11.33;0.97;;;15.30;99.90;;;;;;20676580;28;20284;-66
2021/10/12 03:48:57;;;;;;;0.57;0.57;;;15.30;99.90;;;;;;20658559;28;20214;-66
2021/10/12 03:59:03;;;;;;;4.13;1.40;;;15.30;99.90;;;;;;20658028;28;20282;-65
2021/10/12 04:09:08;;;;;;;0.97;0.97;;;15.30;99.90;;;;;;20656379;28;20318;-66
2021/10/12 04:19:12;;;;;;;1.37;1.27;;;15.10;99.90;;;;;;20674369;28;20195;-66
2021/10/12 04:29:18;;;;;;;0.77;0.47;;;15.10;99.90;;;;;;20652402;28;21376;-67
2021/10/12 04:39:21;;;;;;;1.40;0.93;;;15.00;99.90;;;;;;20654780;28;20335;-66
2021/10/12 04:49:26;;;;;;;1.63;1.53;;;15.10;99.90;;;;;;20652963;28;20195;-66
2021/10/12 04:59:30;;;;;;;3.20;0.67;;;15.00;99.90;;;;;;20652642;28;20227;-65
2021/10/12 05:09:35;;;;;;;0.60;0.60;;;15.10;99.90;;;;;;20652957;28;20619;-66
2021/10/12 05:19:39;;;;;;;0.80;0.80;;;15.20;99.90;;;;;;20704627;28;20309;-64
2021/10/12 05:29:44;;;;;;;16.17;1.83;;;15.30;99.90;;;;;;20733491;28;20203;-65
2021/10/12 05:39:48;;;;;;;1.37;1.20;;;15.00;99.90;;;;;;20732122;28;20228;-65
2021/10/12 05:49:53;;;;;;;0.30;0.30;;;14.80;99.90;;;;;;20740163;28;20607;-65
2021/10/12 05:59:56;;;;;;;2.20;1.20;;;14.90;99.90;;;;;;20746876;28;20234;-65
2021/10/12 06:10:01;;;;;;;1.90;0.83;;;15.20;99.90;;;;;;20747095;28;20282;-66
2021/10/12 06:20:06;;;;;;;1.63;1.53;;;15.20;99.90;;;;;;20690858;28;20310;-65
2021/10/12 06:30:12;;;;;;;2.17;1.57;;;14.90;99.90;;;;;;20664921;28;20291;-64
2021/10/12 06:40:15;;;;;;;3.13;0.70;;;14.90;99.90;;;;;;20636154;28;20216;-65
2021/10/12 06:50:23;;;;;;;1.57;1.30;;;15.10;99.90;;;;;;20580655;28;20299;-64
2021/10/12 07:00:29;;;;;;;1.33;1.23;;;15.30;99.90;;;;;;20633530;28;20223;-65
2021/10/12 07:10:34;;;;;;;1.23;0.50;;;15.50;99.90;;;;;;20660273;28;20199;-66
2021/10/12 07:20:39;;;;;;;1.07;1.07;;;15.80;99.90;;;;;;20671099;28;20259;-65
2021/10/12 07:30:44;;;;;;;0.73;0.73;;;16.00;99.90;;;;;;20659665;28;20661;-66
2021/10/12 07:40:47;;;;;;;7.63;1.23;;;16.50;99.90;;;;;;20658976;28;20306;-65
2021/10/12 07:50:53;;;;;;;4.83;1.03;;;17.00;99.90;;;;;;20657032;28;20230;-64
2021/10/12 08:00:56;;;;;;;1.03;0.97;;;17.50;99.90;;;;;;20656822;28;20239;-67
2021/10/12 08:11:04;;;;;;;1.07;0.73;;;18.00;99.90;;;;;;20656244;28;20207;-68
2021/10/12 08:21:07;;;;;;;0.67;0.40;;;18.40;99.90;;;;;;20719424;28;20218;-67
2021/10/12 08:31:12;;;;;;;1.17;1.07;;;18.50;99.90;;;;;;20734713;28;20298;-67
2021/10/12 08:41:17;;;;;;;6.10;1.33;;;19.10;99.90;;;;;;20735538;28;20617;-67
2021/10/12 08:51:23;;;;;;;1.17;1.07;;;19.50;99.90;;;;;;20733778;28;20203;-67
2021/10/12 09:01:30;;;;;;;3.50;1.57;;;19.70;99.90;;;;;;20732537;28;20624;-66
2021/10/12 09:11:36;;;;;;;0.70;0.70;;;19.80;99.90;;;;;;20638730;28;21214;-67
2021/10/12 09:21:43;;;;;;;1.77;1.00;;;20.00;99.90;;;;;;20713849;28;20330;-67
2021/10/12 09:31:48;;;;;;;4.23;1.53;;;20.20;99.90;;;;;;20727796;28;20640;-66
2021/10/12 09:41:57;;;;;;;1.80;1.53;;;20.40;99.90;;;;;;20679593;28;20223;-66
2021/10/12 09:52:04;;;;;;;2.00;1.90;;;20.60;99.90;;;;;;20646107;28;20206;-67
2021/10/12 10:02:12;;;;;;;6.10;2.13;;;21.00;99.90;;;;;;20602194;28;1218221;-66
2021/10/12 10:12:18;;;;;;;1.87;1.43;;;21.30;99.90;;;;;;20647792;28;20225;-67
2021/10/12 10:22:39;;;;;;;4.27;1.70;;;21.50;99.90;;;;;;20721564;28;20230;-66
2021/10/12 10:32:49;;;;;;;2.77;2.53;;;22.10;99.90;;;;;;20730698;28;20277;-66
2021/10/12 10:43:00;;;;;;;6.75;2.17;;;22.40;99.90;;;;;;20740305;28;20222;-66
2021/10/12 10:53:08;;;;;;;3.88;1.90;;;23.50;99.90;;;;;;20740897;28;20194;-68
2021/10/12 11:03:36;;;;;;;3.33;2.42;;;23.80;99.90;;;;;;20739359;28;20245;-67
2021/10/12 11:13:42;;;;;;;2.47;1.25;;;24.20;99.90;;;;;;20734362;28;20222;-67
2021/10/12 11:23:51;;;;;;;1.30;1.00;;;24.80;99.90;;;;;;20657722;28;20251;-68
2021/10/12 11:33:57;;;;;;;5.03;2.40;;;25.20;99.90;;;;;;20658124;28;20605;-67
2021/10/12 11:44:03;;;;;;;2.22;2.08;;;24.60;99.90;;;;;;20653837;28;20234;-68
2021/10/12 11:54:09;;;;;;;2.92;2.70;;;25.10;99.90;;;;;;20655627;28;20206;-68
2021/10/12 12:04:27;;;;;;;3.72;1.95;;;26.00;99.90;;;;;;20654410;28;20307;-69
2021/10/12 12:14:33;;;;;;;2.67;1.85;;;25.60;99.90;;;;;;20664882;28;20273;-67
2021/10/12 12:24:37;;;;;;;4.00;1.88;;;24.70;99.90;;;;;;20734720;28;20329;-67
2021/10/12 12:34:42;;;;;;;1.70;1.60;;;24.80;99.90;;;;;;20735230;28;20290;-67
2021/10/12 12:44:45;;;;;;;2.75;1.92;;;26.70;99.90;;;;;;20733106;28;20645;-67
2021/10/12 12:54:51;;;;;;;3.33;1.27;;;25.00;99.90;;;;;;20733651;28;20285;-67
2021/10/12 13:04:55;;;;;;;1.60;1.33;;;25.40;99.90;;;;;;20731672;28;20609;-69
2021/10/12 13:15:00;;;;;;;1.45;1.15;;;26.40;99.90;;;;;;20719250;28;20254;-67
2021/10/12 13:25:05;;;;;;;1.48;0.98;;;23.80;99.90;;;;;;20649244;28;20251;-71
2021/10/12 13:35:13;;;;;;;1.15;1.05;;;27.20;99.90;;;;;;20646598;28;20195;-69
2021/10/12 13:45:18;;;;;;;2.88;1.83;;;28.00;99.90;;;;;;20647694;28;20567;-70
2021/10/12 13:55:24;;;;;;;2.97;2.00;;;29.00;99.90;;;;;;20648044;28;20457;-72
2021/10/12 14:05:29;;;;;;;1.88;1.60;;;28.40;99.90;;;;;;20640506;28;20322;-70
2021/10/12 14:15:33;;;;;;;3.55;1.38;;;29.10;99.90;;;;;;20678310;28;20294;-70
2021/10/12 14:25:38;;;;;;;1.08;0.85;;;28.80;99.90;;;;;;20742761;28;20245;-70
2021/10/12 14:35:43;;;;;;;1.13;0.98;;;28.50;99.90;;;;;;20742383;28;20230;-72
2021/10/12 14:45:47;;;;;;;1.70;1.60;;;28.40;99.90;;;;;;20740880;28;20647;-73
2021/10/12 14:55:52;;;;;;;1.23;1.13;;;28.50;99.90;;;;;;20738940;28;20191;-72
2021/10/12 15:06:02;;;;;;;1.40;1.23;;;28.30;99.90;;;;;;22252213;23;20328;-67
2021/10/12 15:16:08;;;;;;;1.70;1.52;;;27.90;99.90;;;;;;20546115;23;20231;-71
2021/10/12 15:26:11;;;;;;;1.20;1.20;;;26.80;99.90;;;;;;20542446;28;20226;-73
2021/10/12 15:36:17;;;;;;;3.92;1.40;;;25.90;99.90;;;;;;20574343;28;20196;-73
2021/10/12 15:46:21;;;;;;;1.27;0.80;;;24.20;99.90;;;;;;20543081;28;20649;-74
2021/10/12 15:56:26;;;;;;;1.58;1.08;;;23.70;99.90;;;;;;20532307;28;20325;-74
2021/10/12 16:06:31;;;;;;;1.37;1.30;;;23.30;99.90;;;;;;20560975;28;20223;-75
2021/10/12 16:26:57;;;;;;;1.43;1.10;;;22.50;99.90;;;;;;20492561;29;20327;-78
2021/10/12 16:37:05;;;;;;;0.98;0.93;;;22.30;99.90;;;;;;20478514;29;20208;-79
2021/10/12 16:47:08;;;;;;;1.63;1.20;;;21.90;99.90;;;;;;20493633;28;20228;-77
2021/10/12 16:57:13;;;;;;;1.77;1.63;;;21.80;99.90;;;;;;20489411;29;20239;-75
2021/10/12 17:07:18;;;;;;;1.93;0.97;;;21.20;99.90;;;;;;20541065;28;20587;-72
2021/10/12 17:17:23;;;;;;;3.20;1.40;;;20.80;99.90;;;;;;20599068;28;20330;-77
2021/10/12 17:27:29;;;;;;;0.60;0.60;;;20.60;99.90;;;;;;20656426;28;20302;-76
2021/10/12 17:37:34;;;;;;;0.73;0.73;;;20.40;99.90;;;;;;20652011;28;20192;-77
2021/10/12 17:47:38;;;;;;;3.13;1.10;;;19.90;99.90;;;;;;20661182;28;20235;-77
2021/10/12 17:57:46;;;;;;;8.03;1.37;;;19.40;99.90;;;;;;20666268;28;20369;-78
2021/10/12 18:07:50;;;;;;;1.80;1.17;;;19.00;99.90;;;;;;20664600;28;20236;-78
2021/10/12 18:17:55;;;;;;;1.80;1.60;;;18.70;99.90;;;;;;20612763;28;20598;-79
2021/10/12 18:27:58;;;;;;;1.43;1.07;;;18.50;99.90;;;;;;20587298;28;20248;-77
2021/10/12 18:38:15;;;;;;;0.87;0.60;;;18.40;99.90;;;;;;20581185;28;20204;-78
2021/10/12 18:48:24;;;;;;;11.77;1.87;;;18.20;99.90;;;;;;20579902;28;20573;-80
2021/10/12 18:58:30;;;;;;;2.30;1.43;;;18.00;99.90;;;;;;20577922;28;20195;-74
2021/10/12 19:08:34;;;;;;;0.90;0.90;;;17.90;99.90;;;;;;20578518;28;20232;-74
2021/10/12 19:18:41;;;;;;;0.70;0.70;;;17.80;99.90;;;;;;20619893;28;20196;-69
2021/10/12 19:28:45;;;;;;;0.80;0.80;;;17.70;99.90;;;;;;20655892;28;20707;-70
2021/10/12 19:38:51;;;;;;;0.97;0.67;;;17.60;99.90;;;;;;20654722;28;20196;-70
2021/10/12 19:48:55;;;;;;;1.53;0.90;;;17.50;99.90;;;;;;20654648;28;20314;-72
2021/10/12 19:59:00;;;;;;;0.87;0.87;;;17.50;99.90;;;;;;20654477;28;21200;-71
2021/10/12 20:09:05;;;;;;;1.10;0.93;;;17.30;99.90;;;;;;20652550;28;20239;-71
2021/10/12 20:29:27;;;;;;;0.50;0.50;;;17.20;99.90;;;;;;20538608;28;20648;-71
2021/10/12 20:39:32;;;;;;;1.47;0.80;;;17.00;99.90;;;;;;20570407;28;20615;-72
2021/10/12 20:49:37;;;;;;;0.67;0.47;;;17.00;99.90;;;;;;20570661;28;20231;-71
2021/10/12 20:59:42;;;;;;;0.40;0.40;;;16.80;99.90;;;;;;20569342;28;20192;-71
2021/10/12 21:09:46;;;;;;;0.73;0.50;;;16.90;99.90;;;;;;20568784;28;20960;-70
2021/10/12 21:19:52;;;;;;;2.30;0.80;;;16.80;99.90;;;;;;20619045;28;20286;-70
2021/10/12 21:29:55;;;;;;;1.03;0.93;;;16.90;99.90;;;;;;20650630;28;20219;-71
2021/10/12 21:40:00;;;;;;;1.13;1.03;;;16.70;99.90;;;;;;20651518;28;20210;-72
2021/10/12 21:50:05;;;;;;;0.93;0.93;;;16.50;99.90;;;;;;20651114;28;20227;-71
2021/10/12 22:00:14;;;;;;;0.40;0.40;;;16.50;99.90;;;;;;20650905;28;20279;-73
2021/10/12 22:10:19;;;;;;;1.37;0.87;;;16.60;99.90;;;;;;20649725;28;20231;-72
2021/10/12 22:20:25;;;;;;;0.67;0.40;;;16.40;99.90;;;;;;20591543;28;20215;-71
2021/10/12 22:30:28;;;;;;;1.00;0.70;;;16.50;99.90;;;;;;20590395;28;20231;-71
2021/10/12 22:40:33;;;;;;;0.40;0.40;;;16.40;99.90;;;;;;20582182;28;20200;-72
2021/10/12 22:50:38;;;;;;;0.70;0.70;;;16.50;99.90;;;;;;20581867;28;20765;-70
2021/10/12 23:00:44;;;;;;;0.57;0.57;;;16.40;99.90;;;;;;20581938;28;20198;-72
2021/10/12 23:10:51;;;;;;;0.57;0.57;;;16.20;99.90;;;;;;20581461;28;20235;-71
2021/10/12 23:20:56;;;;;;;1.03;0.93;;;16.40;99.90;;;;;;20641904;28;20202;-71
2021/10/12 23:31:00;;;;;;;0.33;0.30;;;16.50;99.90;;;;;;20599220;28;20701;-70
2021/10/12 23:41:07;;;;;;;0.50;0.33;;;16.30;99.90;;;;;;20561595;28;20263;-71
2021/10/12 23:51:10;;;;;;;1.03;0.70;;;16.30;99.90;;;;;;20534823;28;20240;-71
